sensor_id;sensor_type;location;lat;lon;timestamp;pressure;altitude;pressure_sealevel;temperature;humidity
31225;BME280;17847;31.524;74.366;2023-05-03T00:01:08;98686.34;;;20.21;87.62
31225;BME280;17847;31.524;74.366;2023-05-03T00:03:38;98686.84;;;20.18;87.83
31225;BME280;17847;31.524;74.366;2023-05-03T00:06:14;98695.44;;;20.15;87.39
31225;BME280;17847;31.524;74.366;2023-05-03T00:08:44;98698.13;;;20.15;87.42
31225;BME280;17847;31.524;74.366;2023-05-03T00:11:13;98697.81;;;20.11;87.95
31225;BME280;17847;31.524;74.366;2023-05-03T00:13:43;98693.78;;;20.09;88.30
31225;BME280;17847;31.524;74.366;2023-05-03T00:16:13;98706.47;;;20.13;88.17
31225;BME280;17847;31.524;74.366;2023-05-03T00:18:42;98701.84;;;20.09;87.92
31225;BME280;17847;31.524;74.366;2023-05-03T00:21:15;98697.00;;;20.11;88.45
31225;BME280;17847;31.524;74.366;2023-05-03T00:23:45;98699.94;;;20.09;87.75
31225;BME280;17847;31.524;74.366;2023-05-03T00:26:14;98704.84;;;20.12;88.38
31225;BME280;17847;31.524;74.366;2023-05-03T00:28:44;98706.75;;;20.17;88.33
31225;BME280;17847;31.524;74.366;2023-05-03T00:31:14;98706.47;;;20.13;88.47
31225;BME280;17847;31.524;74.366;2023-05-03T00:33:44;98713.97;;;20.11;88.56
31225;BME280;17847;31.524;74.366;2023-05-03T00:36:14;98729.28;;;20.11;88.67
31225;BME280;17847;31.524;74.366;2023-05-03T00:38:44;98724.47;;;20.13;88.64
31225;BME280;17847;31.524;74.366;2023-05-03T00:41:13;98728.00;;;20.18;88.56
31225;BME280;17847;31.524;74.366;2023-05-03T00:43:42;98729.50;;;20.04;88.10
31225;BME280;17847;31.524;74.366;2023-05-03T00:46:11;98720.22;;;20.17;88.73
31225;BME280;17847;31.524;74.366;2023-05-03T00:48:47;98721.03;;;20.17;88.52
31225;BME280;17847;31.524;74.366;2023-05-03T00:51:18;98710.00;;;20.19;87.99
31225;BME280;17847;31.524;74.366;2023-05-03T00:53:49;98717.53;;;20.17;87.59
31225;BME280;17847;31.524;74.366;2023-05-03T00:56:20;98712.63;;;20.14;87.40
31225;BME280;17847;31.524;74.366;2023-05-03T00:58:51;98706.75;;;20.17;87.56
31225;BME280;17847;31.524;74.366;2023-05-03T01:01:20;98715.81;;;20.33;86.94
31225;BME280;17847;31.524;74.366;2023-05-03T01:03:50;98702.97;;;20.40;86.39
31225;BME280;17847;31.524;74.366;2023-05-03T01:09:26;98701.56;;;20.64;86.24
31225;BME280;17847;31.524;74.366;2023-05-03T01:17:40;98701.34;;;20.71;83.74
31225;BME280;17847;31.524;74.366;2023-05-03T01:20:12;98702.50;;;20.85;84.28
31225;BME280;17847;31.524;74.366;2023-05-03T01:22:49;98707.94;;;20.90;83.48
31225;BME280;17847;31.524;74.366;2023-05-03T01:25:24;98703.91;;;20.92;83.09
31225;BME280;17847;31.524;74.366;2023-05-03T01:27:57;98698.00;;;20.95;82.53
31225;BME280;17847;31.524;74.366;2023-05-03T01:30:27;98704.41;;;20.89;82.46
31225;BME280;17847;31.524;74.366;2023-05-03T01:35:59;98717.03;;;21.21;81.03
31225;BME280;17847;31.524;74.366;2023-05-03T01:38:32;98719.47;;;21.22;81.08
31225;BME280;17847;31.524;74.366;2023-05-03T01:41:10;98723.84;;;21.33;80.98
31225;BME280;17847;31.524;74.366;2023-05-03T01:43:41;98702.03;;;21.35;80.58
31225;BME280;17847;31.524;74.366;2023-05-03T01:46:12;98712.06;;;21.44;80.80
31225;BME280;17847;31.524;74.366;2023-05-03T01:48:44;98709.88;;;21.36;79.93
31225;BME280;17847;31.524;74.366;2023-05-03T01:51:13;98709.91;;;21.51;79.74
31225;BME280;17847;31.524;74.366;2023-05-03T01:53:43;98718.34;;;21.65;79.12
31225;BME280;17847;31.524;74.366;2023-05-03T01:56:12;98706.75;;;21.70;79.20
31225;BME280;17847;31.524;74.366;2023-05-03T01:58:41;98704.06;;;21.60;79.05
31225;BME280;17847;31.524;74.366;2023-05-03T02:01:10;98710.03;;;21.82;78.53
31225;BME280;17847;31.524;74.366;2023-05-03T02:03:40;98712.53;;;21.93;78.45
31225;BME280;17847;31.524;74.366;2023-05-03T02:06:10;98722.03;;;22.16;77.34
31225;BME280;17847;31.524;74.366;2023-05-03T02:08:39;98718.56;;;22.36;75.87
31225;BME280;17847;31.524;74.366;2023-05-03T02:11:10;98725.88;;;22.76;74.97
31225;BME280;17847;31.524;74.366;2023-05-03T02:13:40;98727.72;;;23.31;72.95
31225;BME280;17847;31.524;74.366;2023-05-03T02:16:09;98729.84;;;23.54;70.88
31225;BME280;17847;31.524;74.366;2023-05-03T02:18:40;98726.41;;;23.98;69.08
31225;BME280;17847;31.524;74.366;2023-05-03T02:21:09;98731.94;;;24.27;67.02
31225;BME280;17847;31.524;74.366;2023-05-03T02:23:39;98733.69;;;24.51;65.42
31225;BME280;17847;31.524;74.366;2023-05-03T02:26:09;98750.56;;;25.06;64.02
31225;BME280;17847;31.524;74.366;2023-05-03T02:28:38;98748.47;;;25.56;62.23
31225;BME280;17847;31.524;74.366;2023-05-03T02:31:08;98747.81;;;25.87;62.14
31225;BME280;17847;31.524;74.366;2023-05-03T02:33:41;98757.69;;;25.78;61.88
31225;BME280;17847;31.524;74.366;2023-05-03T02:36:10;98756.38;;;26.18;60.16
31225;BME280;17847;31.524;74.366;2023-05-03T02:38:39;98762.53;;;26.61;58.04
31225;BME280;17847;31.524;74.366;2023-05-03T02:41:09;98764.44;;;26.98;59.38
31225;BME280;17847;31.524;74.366;2023-05-03T02:43:39;98768.25;;;26.78;58.71
31225;BME280;17847;31.524;74.366;2023-05-03T02:46:08;98771.25;;;27.28;58.17
31225;BME280;17847;31.524;74.366;2023-05-03T02:48:38;98768.66;;;26.91;57.41
31225;BME280;17847;31.524;74.366;2023-05-03T02:51:08;98774.50;;;26.60;57.95
31225;BME280;17847;31.524;74.366;2023-05-03T02:53:37;98782.38;;;26.24;58.18
31225;BME280;17847;31.524;74.366;2023-05-03T02:56:07;98785.34;;;25.80;59.52
31225;BME280;17847;31.524;74.366;2023-05-03T02:58:37;98790.44;;;26.29;59.33
31225;BME280;17847;31.524;74.366;2023-05-03T03:01:06;98785.69;;;26.40;58.35
31225;BME280;17847;31.524;74.366;2023-05-03T03:03:36;98788.34;;;26.45;57.62
31225;BME280;17847;31.524;74.366;2023-05-03T03:06:06;98789.66;;;25.81;60.31
31225;BME280;17847;31.524;74.366;2023-05-03T03:08:35;98802.56;;;25.42;61.72
31225;BME280;17847;31.524;74.366;2023-05-03T03:11:06;98795.34;;;25.61;61.50
31225;BME280;17847;31.524;74.366;2023-05-03T03:13:35;98801.94;;;25.79;60.79
31225;BME280;17847;31.524;74.366;2023-05-03T03:16:08;98810.63;;;25.47;61.04
31225;BME280;17847;31.524;74.366;2023-05-03T03:18:38;98816.88;;;24.80;61.29
31225;BME280;17847;31.524;74.366;2023-05-03T03:21:08;98821.19;;;24.91;61.95
31225;BME280;17847;31.524;74.366;2023-05-03T03:23:37;98816.63;;;25.15;61.56
31225;BME280;17847;31.524;74.366;2023-05-03T03:26:07;98817.00;;;25.32;60.82
31225;BME280;17847;31.524;74.366;2023-05-03T03:28:36;98818.31;;;25.69;60.08
31225;BME280;17847;31.524;74.366;2023-05-03T03:31:09;98815.22;;;25.52;60.28
31225;BME280;17847;31.524;74.366;2023-05-03T03:33:41;98819.38;;;25.44;60.29
31225;BME280;17847;31.524;74.366;2023-05-03T03:36:16;98819.53;;;25.53;59.85
31225;BME280;17847;31.524;74.366;2023-05-03T03:38:47;98824.59;;;25.64;60.17
31225;BME280;17847;31.524;74.366;2023-05-03T03:41:17;98822.47;;;25.85;59.87
31225;BME280;17847;31.524;74.366;2023-05-03T03:43:49;98834.19;;;26.04;58.23
31225;BME280;17847;31.524;74.366;2023-05-03T03:46:20;98832.00;;;26.06;59.05
31225;BME280;17847;31.524;74.366;2023-05-03T03:48:52;98830.75;;;26.17;59.24
31225;BME280;17847;31.524;74.366;2023-05-03T03:51:25;98828.47;;;25.82;57.55
31225;BME280;17847;31.524;74.366;2023-05-03T03:53:55;98837.34;;;26.35;57.66
31225;BME280;17847;31.524;74.366;2023-05-03T03:56:28;98837.59;;;26.57;55.70
31225;BME280;17847;31.524;74.366;2023-05-03T03:58:59;98840.16;;;26.49;55.77
31225;BME280;17847;31.524;74.366;2023-05-03T04:01:29;98840.97;;;26.49;57.63
31225;BME280;17847;31.524;74.366;2023-05-03T04:03:59;98846.00;;;26.98;57.28
31225;BME280;17847;31.524;74.366;2023-05-03T04:06:29;98843.72;;;26.87;55.50
31225;BME280;17847;31.524;74.366;2023-05-03T04:09:05;98842.38;;;26.65;56.64
31225;BME280;17847;31.524;74.366;2023-05-03T04:11:35;98844.72;;;26.53;55.23
31225;BME280;17847;31.524;74.366;2023-05-03T04:14:05;98850.50;;;26.47;56.08
31225;BME280;17847;31.524;74.366;2023-05-03T04:16:35;98842.75;;;26.59;55.50
31225;BME280;17847;31.524;74.366;2023-05-03T04:19:05;98849.47;;;26.85;56.06
31225;BME280;17847;31.524;74.366;2023-05-03T04:21:38;98846.03;;;27.44;53.78
31225;BME280;17847;31.524;74.366;2023-05-03T04:24:08;98855.31;;;28.03;50.93
31225;BME280;17847;31.524;74.366;2023-05-03T04:26:37;98849.22;;;27.51;52.11
31225;BME280;17847;31.524;74.366;2023-05-03T04:29:15;98855.50;;;27.65;53.63
31225;BME280;17847;31.524;74.366;2023-05-03T04:31:46;98863.78;;;28.15;54.23
31225;BME280;17847;31.524;74.366;2023-05-03T04:34:16;98862.97;;;27.87;53.29
31225;BME280;17847;31.524;74.366;2023-05-03T04:36:49;98862.13;;;27.59;53.39
31225;BME280;17847;31.524;74.366;2023-05-03T04:39:19;98868.06;;;27.29;53.09
31225;BME280;17847;31.524;74.366;2023-05-03T04:41:49;98871.59;;;26.73;55.98
31225;BME280;17847;31.524;74.366;2023-05-03T04:44:19;98865.94;;;26.70;55.84
31225;BME280;17847;31.524;74.366;2023-05-03T04:46:49;98867.06;;;26.88;56.68
31225;BME280;17847;31.524;74.366;2023-05-03T04:49:20;98860.34;;;26.61;57.59
31225;BME280;17847;31.524;74.366;2023-05-03T04:51:49;98861.63;;;26.50;57.73
31225;BME280;17847;31.524;74.366;2023-05-03T04:54:22;98866.53;;;26.48;57.10
31225;BME280;17847;31.524;74.366;2023-05-03T04:56:53;98863.22;;;26.51;57.81
31225;BME280;17847;31.524;74.366;2023-05-03T04:59:23;98858.25;;;26.58;57.60
31225;BME280;17847;31.524;74.366;2023-05-03T05:01:53;98868.06;;;26.54;57.02
31225;BME280;17847;31.524;74.366;2023-05-03T05:04:24;98868.38;;;26.05;57.12
31225;BME280;17847;31.524;74.366;2023-05-03T05:06:54;98869.72;;;25.84;58.72
31225;BME280;17847;31.524;74.366;2023-05-03T05:09:28;98864.75;;;26.15;60.46
31225;BME280;17847;31.524;74.366;2023-05-03T05:12:01;98861.16;;;26.19;58.97
31225;BME280;17847;31.524;74.366;2023-05-03T05:14:38;98864.59;;;26.06;57.71
31225;BME280;17847;31.524;74.366;2023-05-03T05:17:09;98860.47;;;26.09;58.27
31225;BME280;17847;31.524;74.366;2023-05-03T05:19:38;98856.28;;;26.21;58.24
31225;BME280;17847;31.524;74.366;2023-05-03T05:22:08;98853.63;;;26.77;58.15
31225;BME280;17847;31.524;74.366;2023-05-03T05:24:52;98859.03;;;27.47;56.96
31225;BME280;17847;31.524;74.366;2023-05-03T05:27:22;98850.81;;;27.20;54.96
31225;BME280;17847;31.524;74.366;2023-05-03T05:29:55;98860.97;;;26.77;57.65
31225;BME280;17847;31.524;74.366;2023-05-03T05:32:26;98866.06;;;27.35;58.60
31225;BME280;17847;31.524;74.366;2023-05-03T05:34:56;98860.91;;;27.52;54.24
31225;BME280;17847;31.524;74.366;2023-05-03T05:37:27;98861.97;;;28.10;53.61
31225;BME280;17847;31.524;74.366;2023-05-03T05:40:00;98855.28;;;27.89;52.84
31225;BME280;17847;31.524;74.366;2023-05-03T05:42:36;98854.03;;;28.28;51.80
31225;BME280;17847;31.524;74.366;2023-05-03T05:45:06;98857.81;;;27.40;53.25
31225;BME280;17847;31.524;74.366;2023-05-03T05:47:38;98845.25;;;28.31;53.06
31225;BME280;17847;31.524;74.366;2023-05-03T05:50:09;98843.59;;;28.43;52.22
31225;BME280;17847;31.524;74.366;2023-05-03T05:52:52;98842.41;;;27.95;51.06
31225;BME280;17847;31.524;74.366;2023-05-03T05:55:24;98836.50;;;28.56;51.82
31225;BME280;17847;31.524;74.366;2023-05-03T05:57:55;98837.28;;;29.28;52.57
31225;BME280;17847;31.524;74.366;2023-05-03T06:00:32;98824.97;;;29.17;51.83
31225;BME280;17847;31.524;74.366;2023-05-03T06:03:04;98817.13;;;29.38;50.26
31225;BME280;17847;31.524;74.366;2023-05-03T06:05:34;98824.72;;;28.47;50.23
31225;BME280;17847;31.524;74.366;2023-05-03T06:08:04;98815.84;;;28.41;54.30
31225;BME280;17847;31.524;74.366;2023-05-03T06:10:33;98814.72;;;29.14;51.72
31225;BME280;17847;31.524;74.366;2023-05-03T06:13:03;98813.72;;;28.88;48.69
31225;BME280;17847;31.524;74.366;2023-05-03T06:15:34;98804.78;;;29.18;51.12
31225;BME280;17847;31.524;74.366;2023-05-03T06:18:04;98798.09;;;29.24;52.29
31225;BME280;17847;31.524;74.366;2023-05-03T06:20:34;98794.72;;;29.27;49.14
31225;BME280;17847;31.524;74.366;2023-05-03T06:23:04;98796.06;;;29.61;49.94
31225;BME280;17847;31.524;74.366;2023-05-03T06:25:36;98788.31;;;29.54;49.40
31225;BME280;17847;31.524;74.366;2023-05-03T06:28:06;98785.38;;;29.42;48.35
31225;BME280;17847;31.524;74.366;2023-05-03T06:30:36;98780.78;;;29.29;49.42
31225;BME280;17847;31.524;74.366;2023-05-03T06:33:11;98786.44;;;29.32;49.72
31225;BME280;17847;31.524;74.366;2023-05-03T06:35:46;98772.38;;;29.48;46.88
31225;BME280;17847;31.524;74.366;2023-05-03T06:38:17;98767.88;;;29.43;48.84
31225;BME280;17847;31.524;74.366;2023-05-03T06:40:47;98763.38;;;29.16;46.41
31225;BME280;17847;31.524;74.366;2023-05-03T06:43:19;98766.72;;;29.35;47.77
31225;BME280;17847;31.524;74.366;2023-05-03T06:45:55;98758.59;;;29.92;49.28
31225;BME280;17847;31.524;74.366;2023-05-03T06:48:25;98763.44;;;29.95;48.74
31225;BME280;17847;31.524;74.366;2023-05-03T06:50:55;98756.28;;;29.77;48.71
31225;BME280;17847;31.524;74.366;2023-05-03T06:53:25;98753.53;;;29.68;47.39
31225;BME280;17847;31.524;74.366;2023-05-03T06:55:55;98757.13;;;29.47;44.93
31225;BME280;17847;31.524;74.366;2023-05-03T06:58:25;98745.31;;;29.60;48.41
31225;BME280;17847;31.524;74.366;2023-05-03T07:00:55;98751.69;;;29.95;46.06
31225;BME280;17847;31.524;74.366;2023-05-03T07:03:24;98752.06;;;30.19;46.01
31225;BME280;17847;31.524;74.366;2023-05-03T07:05:54;98744.88;;;30.49;46.86
31225;BME280;17847;31.524;74.366;2023-05-03T07:08:23;98740.66;;;29.60;47.41
31225;BME280;17847;31.524;74.366;2023-05-03T07:10:52;98742.75;;;29.01;49.06
31225;BME280;17847;31.524;74.366;2023-05-03T07:13:21;98735.97;;;28.99;50.76
31225;BME280;17847;31.524;74.366;2023-05-03T07:15:51;98736.50;;;28.79;49.19
31225;BME280;17847;31.524;74.366;2023-05-03T07:18:20;98733.56;;;28.03;50.44
31225;BME280;17847;31.524;74.366;2023-05-03T07:20:49;98728.78;;;28.36;52.77
31225;BME280;17847;31.524;74.366;2023-05-03T07:23:24;98729.91;;;28.35;50.30
31225;BME280;17847;31.524;74.366;2023-05-03T07:26:07;98727.91;;;28.27;49.97
31225;BME280;17847;31.524;74.366;2023-05-03T07:28:36;98726.91;;;28.23;50.67
31225;BME280;17847;31.524;74.366;2023-05-03T07:31:06;98718.41;;;28.25;51.26
31225;BME280;17847;31.524;74.366;2023-05-03T07:33:36;98730.03;;;28.03;49.88
31225;BME280;17847;31.524;74.366;2023-05-03T07:36:06;98720.16;;;27.93;48.63
31225;BME280;17847;31.524;74.366;2023-05-03T07:38:35;98716.38;;;27.67;49.67
31225;BME280;17847;31.524;74.366;2023-05-03T07:41:05;98713.66;;;27.53;50.00
31225;BME280;17847;31.524;74.366;2023-05-03T07:43:35;98720.19;;;27.80;51.27
31225;BME280;17847;31.524;74.366;2023-05-03T07:46:04;98708.28;;;27.76;50.65
31225;BME280;17847;31.524;74.366;2023-05-03T07:48:33;98708.19;;;27.81;50.43
31225;BME280;17847;31.524;74.366;2023-05-03T07:51:04;98701.19;;;28.02;49.73
31225;BME280;17847;31.524;74.366;2023-05-03T07:53:33;98690.56;;;28.28;48.93
31225;BME280;17847;31.524;74.366;2023-05-03T07:56:08;98687.16;;;28.67;49.01
31225;BME280;17847;31.524;74.366;2023-05-03T07:58:38;98680.22;;;28.83;49.14
31225;BME280;17847;31.524;74.366;2023-05-03T08:01:09;98670.00;;;29.19;50.77
31225;BME280;17847;31.524;74.366;2023-05-03T08:03:38;98668.88;;;29.20;47.82
31225;BME280;17847;31.524;74.366;2023-05-03T08:06:08;98668.13;;;28.97;45.65
31225;BME280;17847;31.524;74.366;2023-05-03T08:08:38;98664.72;;;28.92;46.96
31225;BME280;17847;31.524;74.366;2023-05-03T08:11:08;98666.22;;;28.98;47.83
31225;BME280;17847;31.524;74.366;2023-05-03T08:13:37;98652.00;;;29.18;51.03
31225;BME280;17847;31.524;74.366;2023-05-03T08:16:07;98647.59;;;29.39;47.79
31225;BME280;17847;31.524;74.366;2023-05-03T08:18:36;98643.81;;;29.18;46.21
31225;BME280;17847;31.524;74.366;2023-05-03T08:21:06;98645.41;;;28.57;46.62
31225;BME280;17847;31.524;74.366;2023-05-03T08:23:38;98634.53;;;28.57;49.56
31225;BME280;17847;31.524;74.366;2023-05-03T08:26:07;98624.84;;;28.74;48.92
31225;BME280;17847;31.524;74.366;2023-05-03T08:28:38;98623.94;;;28.87;49.25
31225;BME280;17847;31.524;74.366;2023-05-03T08:31:07;98619.34;;;28.96;48.33
31225;BME280;17847;31.524;74.366;2023-05-03T08:33:37;98609.66;;;28.81;48.39
31225;BME280;17847;31.524;74.366;2023-05-03T08:36:06;98613.19;;;28.82;47.98
31225;BME280;17847;31.524;74.366;2023-05-03T08:38:36;98605.50;;;29.23;48.37
31225;BME280;17847;31.524;74.366;2023-05-03T08:41:20;98599.19;;;29.06;46.09
31225;BME280;17847;31.524;74.366;2023-05-03T08:43:54;98584.97;;;28.86;46.89
31225;BME280;17847;31.524;74.366;2023-05-03T08:46:27;98585.25;;;29.16;48.97
31225;BME280;17847;31.524;74.366;2023-05-03T08:48:58;98579.31;;;29.14;46.93
31225;BME280;17847;31.524;74.366;2023-05-03T08:51:28;98569.84;;;29.11;47.91
31225;BME280;17847;31.524;74.366;2023-05-03T08:53:58;98576.03;;;29.42;49.09
31225;BME280;17847;31.524;74.366;2023-05-03T08:56:32;98562.88;;;29.44;47.43
31225;BME280;17847;31.524;74.366;2023-05-03T08:59:04;98557.47;;;29.14;46.40
31225;BME280;17847;31.524;74.366;2023-05-03T09:01:39;98549.72;;;29.38;46.44
31225;BME280;17847;31.524;74.366;2023-05-03T09:04:10;98538.66;;;29.52;46.28
31225;BME280;17847;31.524;74.366;2023-05-03T09:06:40;98530.13;;;29.62;44.46
31225;BME280;17847;31.524;74.366;2023-05-03T09:09:09;98524.75;;;29.14;44.07
31225;BME280;17847;31.524;74.366;2023-05-03T09:11:39;98520.00;;;29.36;44.57
31225;BME280;17847;31.524;74.366;2023-05-03T09:14:17;98512.78;;;29.66;46.14
31225;BME280;17847;31.524;74.366;2023-05-03T09:16:46;98512.47;;;29.59;45.75
31225;BME280;17847;31.524;74.366;2023-05-03T09:19:15;98510.53;;;29.68;46.95
31225;BME280;17847;31.524;74.366;2023-05-03T09:21:46;98505.41;;;29.67;45.47
31225;BME280;17847;31.524;74.366;2023-05-03T09:24:20;98497.69;;;29.60;47.13
31225;BME280;17847;31.524;74.366;2023-05-03T09:26:50;98492.84;;;29.66;46.71
31225;BME280;17847;31.524;74.366;2023-05-03T09:29:28;98482.91;;;29.53;44.50
31225;BME280;17847;31.524;74.366;2023-05-03T09:32:00;98489.94;;;29.28;43.85
31225;BME280;17847;31.524;74.366;2023-05-03T09:34:31;98485.19;;;29.33;45.94
31225;BME280;17847;31.524;74.366;2023-05-03T09:37:02;98476.16;;;29.24;45.50
31225;BME280;17847;31.524;74.366;2023-05-03T09:39:31;98473.56;;;29.19;47.25
31225;BME280;17847;31.524;74.366;2023-05-03T09:42:17;98471.25;;;28.87;46.40
31225;BME280;17847;31.524;74.366;2023-05-03T09:44:48;98465.00;;;28.86;47.66
31225;BME280;17847;31.524;74.366;2023-05-03T09:47:21;98460.22;;;28.92;47.55
31225;BME280;17847;31.524;74.366;2023-05-03T09:49:57;98458.59;;;28.91;48.16
31225;BME280;17847;31.524;74.366;2023-05-03T09:52:27;98459.56;;;28.95;48.25
31225;BME280;17847;31.524;74.366;2023-05-03T09:54:57;98454.75;;;28.83;47.41
31225;BME280;17847;31.524;74.366;2023-05-03T09:57:28;98447.19;;;28.72;47.42
31225;BME280;17847;31.524;74.366;2023-05-03T09:59:59;98449.50;;;28.56;48.12
31225;BME280;17847;31.524;74.366;2023-05-03T10:02:38;98434.28;;;28.64;47.34
31225;BME280;17847;31.524;74.366;2023-05-03T10:05:10;98436.97;;;28.46;47.08
31225;BME280;17847;31.524;74.366;2023-05-03T10:07:42;98434.09;;;28.51;47.94
31225;BME280;17847;31.524;74.366;2023-05-03T10:10:13;98426.53;;;28.40;48.46
31225;BME280;17847;31.524;74.366;2023-05-03T10:12:43;98426.78;;;28.21;48.37
31225;BME280;17847;31.524;74.366;2023-05-03T10:15:14;98420.25;;;28.00;48.67
31225;BME280;17847;31.524;74.366;2023-05-03T10:17:45;98413.06;;;28.04;48.55
31225;BME280;17847;31.524;74.366;2023-05-03T10:20:32;98419.28;;;28.27;47.88
31225;BME280;17847;31.524;74.366;2023-05-03T10:25:35;98409.00;;;28.24;50.77
31225;BME280;17847;31.524;74.366;2023-05-03T10:28:07;98404.19;;;28.21;50.31
31225;BME280;17847;31.524;74.366;2023-05-03T10:30:41;98404.19;;;28.21;50.52
31225;BME280;17847;31.524;74.366;2023-05-03T10:35:42;98393.66;;;28.28;47.87
31225;BME280;17847;31.524;74.366;2023-05-03T10:38:16;98395.34;;;28.15;49.34
31225;BME280;17847;31.524;74.366;2023-05-03T10:40:46;98383.84;;;28.18;49.37
31225;BME280;17847;31.524;74.366;2023-05-03T10:43:41;98386.47;;;28.40;48.63
31225;BME280;17847;31.524;74.366;2023-05-03T10:46:29;98377.00;;;28.38;48.97
31225;BME280;17847;31.524;74.366;2023-05-03T10:49:20;98377.63;;;28.26;47.39
31225;BME280;17847;31.524;74.366;2023-05-03T10:51:51;98365.00;;;28.39;47.68
31225;BME280;17847;31.524;74.366;2023-05-03T10:54:20;98367.41;;;28.40;48.35
31225;BME280;17847;31.524;74.366;2023-05-03T10:56:51;98368.81;;;28.38;46.64
31225;BME280;17847;31.524;74.366;2023-05-03T10:59:22;98363.84;;;28.31;46.96
31225;BME280;17847;31.524;74.366;2023-05-03T11:01:53;98366.44;;;28.36;48.07
31225;BME280;17847;31.524;74.366;2023-05-03T11:06:52;98364.84;;;28.44;47.18
31225;BME280;17847;31.524;74.366;2023-05-03T11:09:32;98366.25;;;28.41;46.38
31225;BME280;17847;31.524;74.366;2023-05-03T11:12:06;98369.66;;;28.47;47.88
31225;BME280;17847;31.524;74.366;2023-05-03T11:14:36;98371.78;;;28.58;47.17
31225;BME280;17847;31.524;74.366;2023-05-03T11:17:07;98377.81;;;28.38;45.66
31225;BME280;17847;31.524;74.366;2023-05-03T11:19:37;98376.97;;;28.29;47.01
31225;BME280;17847;31.524;74.366;2023-05-03T11:22:07;98367.84;;;28.25;46.45
31225;BME280;17847;31.524;74.366;2023-05-03T11:24:37;98368.81;;;28.29;46.69
31225;BME280;17847;31.524;74.366;2023-05-03T11:27:10;98368.19;;;28.32;46.79
31225;BME280;17847;31.524;74.366;2023-05-03T11:29:47;98367.19;;;28.28;46.22
31225;BME280;17847;31.524;74.366;2023-05-03T11:32:18;98366.09;;;28.29;45.99
31225;BME280;17847;31.524;74.366;2023-05-03T11:34:48;98364.09;;;28.12;46.69
31225;BME280;17847;31.524;74.366;2023-05-03T11:37:17;98368.75;;;28.12;48.98
31225;BME280;17847;31.524;74.366;2023-05-03T11:39:46;98365.38;;;28.15;49.15
31225;BME280;17847;31.524;74.366;2023-05-03T11:42:16;98365.03;;;28.08;48.73
31225;BME280;17847;31.524;74.366;2023-05-03T11:44:46;98359.84;;;27.98;48.97
31225;BME280;17847;31.524;74.366;2023-05-03T11:47:15;98361.25;;;27.87;50.12
31225;BME280;17847;31.524;74.366;2023-05-03T11:49:54;98362.66;;;27.84;52.11
31225;BME280;17847;31.524;74.366;2023-05-03T11:52:26;98364.44;;;27.89;51.75
31225;BME280;17847;31.524;74.366;2023-05-03T11:54:56;98356.28;;;27.89;52.06
31225;BME280;17847;31.524;74.366;2023-05-03T11:57:25;98360.28;;;27.83;50.34
31225;BME280;17847;31.524;74.366;2023-05-03T12:00:12;98359.56;;;27.68;51.27
31225;BME280;17847;31.524;74.366;2023-05-03T12:02:50;98361.44;;;27.59;50.45
31225;BME280;17847;31.524;74.366;2023-05-03T12:05:21;98353.22;;;27.51;52.02
31225;BME280;17847;31.524;74.366;2023-05-03T12:07:51;98356.25;;;27.49;50.27
31225;BME280;17847;31.524;74.366;2023-05-03T12:10:30;98353.91;;;27.56;50.20
31225;BME280;17847;31.524;74.366;2023-05-03T12:13:01;98357.59;;;27.60;49.77
31225;BME280;17847;31.524;74.366;2023-05-03T12:15:34;98358.41;;;27.61;50.72
31225;BME280;17847;31.524;74.366;2023-05-03T12:18:11;98344.28;;;27.37;51.30
31225;BME280;17847;31.524;74.366;2023-05-03T12:20:41;98340.19;;;27.17;51.87
31225;BME280;17847;31.524;74.366;2023-05-03T12:23:14;98338.06;;;27.14;52.07
31225;BME280;17847;31.524;74.366;2023-05-03T12:25:44;98335.53;;;26.95;52.12
31225;BME280;17847;31.524;74.366;2023-05-03T12:28:16;98344.81;;;26.80;52.74
31225;BME280;17847;31.524;74.366;2023-05-03T12:30:48;98348.97;;;26.64;53.34
31225;BME280;17847;31.524;74.366;2023-05-03T12:33:20;98345.38;;;26.55;53.95
31225;BME280;17847;31.524;74.366;2023-05-03T12:35:50;98358.47;;;26.40;55.44
31225;BME280;17847;31.524;74.366;2023-05-03T12:38:21;98352.03;;;26.22;56.88
31225;BME280;17847;31.524;74.366;2023-05-03T12:40:52;98358.75;;;25.97;57.13
31225;BME280;17847;31.524;74.366;2023-05-03T12:43:22;98357.84;;;25.88;57.48
31225;BME280;17847;31.524;74.366;2023-05-03T12:45:52;98349.97;;;25.73;57.54
31225;BME280;17847;31.524;74.366;2023-05-03T12:48:41;98357.84;;;25.74;57.74
31225;BME280;17847;31.524;74.366;2023-05-03T12:51:13;98356.50;;;25.72;57.81
31225;BME280;17847;31.524;74.366;2023-05-03T12:53:48;98346.88;;;25.66;58.30
31225;BME280;17847;31.524;74.366;2023-05-03T12:56:22;98338.69;;;25.52;58.54
31225;BME280;17847;31.524;74.366;2023-05-03T12:58:53;98336.19;;;25.56;58.18
31225;BME280;17847;31.524;74.366;2023-05-03T13:01:25;98340.44;;;25.62;58.29
31225;BME280;17847;31.524;74.366;2023-05-03T13:03:58;98350.16;;;25.63;57.64
31225;BME280;17847;31.524;74.366;2023-05-03T13:06:30;98357.91;;;25.69;57.90
31225;BME280;17847;31.524;74.366;2023-05-03T13:09:09;98354.91;;;25.57;58.17
31225;BME280;17847;31.524;74.366;2023-05-03T13:11:48;98351.31;;;25.43;58.42
31225;BME280;17847;31.524;74.366;2023-05-03T13:14:22;98342.56;;;25.46;58.60
31225;BME280;17847;31.524;74.366;2023-05-03T13:16:52;98345.19;;;25.51;57.80
31225;BME280;17847;31.524;74.366;2023-05-03T13:19:27;98355.78;;;25.34;57.64
31225;BME280;17847;31.524;74.366;2023-05-03T13:21:57;98347.75;;;25.29;58.24
31225;BME280;17847;31.524;74.366;2023-05-03T13:24:27;98352.88;;;25.30;58.14
31225;BME280;17847;31.524;74.366;2023-05-03T13:26:56;98356.28;;;25.36;58.59
31225;BME280;17847;31.524;74.366;2023-05-03T13:29:26;98362.84;;;25.35;58.61
31225;BME280;17847;31.524;74.366;2023-05-03T13:31:56;98372.06;;;25.34;58.52